createdAt,value
2019-02-19T00:00:46.016Z,5.38
2019-02-19T00:01:45.981Z,5.28
2019-02-19T00:02:45.970Z,5.19
2019-02-19T00:03:45.974Z,5.13
2019-02-19T00:04:46.003Z,5.02
2019-02-19T00:05:45.962Z,4.80
2019-02-19T00:06:46.003Z,4.67
2019-02-19T00:07:45.966Z,4.54
2019-02-19T00:08:45.959Z,4.42
2019-02-19T00:09:45.987Z,4.15
2019-02-19T00:10:45.945Z,4.08
2019-02-19T00:11:45.941Z,4.03
2019-02-19T00:12:45.937Z,4.08
2019-02-19T00:13:45.938Z,3.98
2019-02-19T00:14:45.973Z,3.98
2019-02-19T00:15:45.930Z,3.98
2019-02-19T00:16:45.928Z,3.76
2019-02-19T00:17:45.921Z,3.70
2019-02-19T00:18:45.920Z,3.65
2019-02-19T00:19:45.949Z,3.60
2019-02-19T00:20:45.953Z,3.57
2019-02-19T00:21:45.912Z,3.52
2019-02-19T00:22:45.901Z,3.34
2019-02-19T00:23:45.897Z,3.31
2019-02-19T00:24:45.929Z,3.36
2019-02-19T00:25:45.894Z,3.39
2019-02-19T00:26:45.893Z,3.64
2019-02-19T00:27:45.886Z,3.80
2019-02-19T00:28:45.879Z,3.90
2019-02-19T00:29:45.917Z,3.83
2019-02-19T00:30:45.875Z,3.80
2019-02-19T00:31:45.871Z,3.70
2019-02-19T00:32:45.863Z,3.70
2019-02-19T00:33:45.864Z,3.64
2019-02-19T00:34:45.895Z,3.44
2019-02-19T00:35:45.878Z,3.43
2019-02-19T00:36:45.847Z,3.28
2019-02-19T00:37:45.845Z,3.15
2019-02-19T00:38:45.852Z,3.05
2019-02-19T00:39:45.874Z,3.02
2019-02-19T00:40:45.838Z,2.88
2019-02-19T00:41:45.833Z,2.77
2019-02-19T00:42:45.822Z,2.73
2019-02-19T00:43:45.823Z,2.84
2019-02-19T00:44:45.849Z,3.06
2019-02-19T00:45:45.820Z,3.47
2019-02-19T00:46:45.807Z,4.03
2019-02-19T00:47:45.809Z,5.25
2019-02-19T00:48:45.805Z,6.06
2019-02-19T00:49:45.834Z,6.61
2019-02-19T00:50:45.795Z,6.90
2019-02-19T00:51:45.787Z,7.22
2019-02-19T00:52:45.783Z,7.40
2019-02-19T00:53:45.785Z,7.84
2019-02-19T00:54:45.842Z,7.90
2019-02-19T00:55:45.770Z,7.93
2019-02-19T00:56:45.769Z,7.81
2019-02-19T00:57:45.762Z,7.79
2019-02-19T00:58:45.770Z,7.89
2019-02-19T00:59:45.790Z,7.82
2019-02-19T01:00:45.747Z,7.74
2019-02-19T01:01:45.748Z,7.79
2019-02-19T01:02:45.747Z,7.81
2019-02-19T01:03:45.746Z,7.81
2019-02-19T01:04:45.775Z,7.81
2019-02-19T01:05:45.775Z,7.87
2019-02-19T01:06:45.740Z,7.85
2019-02-19T01:07:45.746Z,8.00
2019-02-19T01:08:45.729Z,7.94
2019-02-19T01:09:45.729Z,7.97
2019-02-19T01:10:45.759Z,8.08
2019-02-19T01:11:45.755Z,7.94
2019-02-19T01:12:45.719Z,8.07
2019-02-19T01:13:45.718Z,8.11
2019-02-19T01:14:45.706Z,8.15
2019-02-19T01:15:45.743Z,8.26
2019-02-19T01:16:45.693Z,8.53
2019-02-19T01:17:45.738Z,8.53
2019-02-19T01:18:45.687Z,8.44
2019-02-19T01:19:45.691Z,8.51
2019-02-19T01:20:45.718Z,8.51
2019-02-19T01:21:45.683Z,8.60
2019-02-19T01:22:45.679Z,8.50
2019-02-19T01:23:45.681Z,8.54
2019-02-19T01:24:45.675Z,8.45
2019-02-19T01:25:45.705Z,8.37
2019-02-19T01:26:45.715Z,8.47
2019-02-19T01:27:45.667Z,8.32
2019-02-19T01:28:45.664Z,8.44
2019-02-19T01:29:45.661Z,8.37
2019-02-19T01:30:45.697Z,8.47
2019-02-19T01:31:45.659Z,8.39
2019-02-19T01:32:45.691Z,8.53
2019-02-19T01:33:45.654Z,8.55
2019-02-19T01:34:45.651Z,8.51
2019-02-19T01:35:45.699Z,8.29
2019-02-19T01:36:45.647Z,8.29
2019-02-19T01:37:45.647Z,8.15
2019-02-19T01:38:45.644Z,8.22
2019-02-19T01:39:45.646Z,8.21
2019-02-19T01:40:45.676Z,8.14
2019-02-19T01:41:45.671Z,8.20
2019-02-19T01:42:45.686Z,8.30
2019-02-19T01:43:45.771Z,8.15
2019-02-19T01:44:45.632Z,8.14
2019-02-19T01:45:45.663Z,8.04
2019-02-19T01:46:46.093Z,8.07
2019-02-19T01:47:45.624Z,8.10
2019-02-19T01:48:45.621Z,8.07
2019-02-19T01:49:45.619Z,7.90
2019-02-19T01:50:45.656Z,8.02
2019-02-19T01:51:46.726Z,7.94
2019-02-19T01:52:45.613Z,8.00
2019-02-19T01:53:45.614Z,7.85
2019-02-19T01:54:45.615Z,7.84
2019-02-19T01:55:45.645Z,7.92
2019-02-19T01:56:45.602Z,7.99
2019-02-19T01:57:45.604Z,7.85
2019-02-19T01:58:45.600Z,8.03
2019-02-19T01:59:45.600Z,7.99
2019-02-19T02:00:45.631Z,8.04
2019-02-19T02:01:46.280Z,7.94
2019-02-19T02:02:45.594Z,7.92
2019-02-19T02:03:45.595Z,7.81
2019-02-19T02:04:45.586Z,7.75
2019-02-19T02:05:45.635Z,7.67
2019-02-19T02:06:45.584Z,7.74
2019-02-19T02:07:45.583Z,7.60
2019-02-19T02:08:45.573Z,7.56
2019-02-19T02:09:45.577Z,7.50
2019-02-19T02:10:45.618Z,7.52
2019-02-19T02:11:45.571Z,7.49
2019-02-19T02:12:45.570Z,7.55
2019-02-19T02:13:45.569Z,7.52
2019-02-19T02:14:45.563Z,7.52
2019-02-19T02:15:45.565Z,7.32
2019-02-19T02:16:45.598Z,7.35
2019-02-19T02:17:45.556Z,7.37
2019-02-19T02:18:45.556Z,7.44
2019-02-19T02:19:45.553Z,7.52
2019-02-19T02:20:45.552Z,7.50
2019-02-19T02:21:45.587Z,7.53
2019-02-19T02:22:45.589Z,7.52
2019-02-19T02:23:45.543Z,7.45
2019-02-19T02:24:45.543Z,7.58
2019-02-19T02:25:45.544Z,7.63
2019-02-19T02:26:45.573Z,7.49
2019-02-19T02:27:45.531Z,7.53
2019-02-19T02:28:45.571Z,7.52
2019-02-19T02:29:45.536Z,7.59
2019-02-19T02:30:45.525Z,7.55
2019-02-19T02:31:45.566Z,7.42
2019-02-19T02:32:45.526Z,7.40
2019-02-19T02:33:45.521Z,7.41
2019-02-19T02:34:45.563Z,7.41
2019-02-19T02:35:45.515Z,7.32
2019-02-19T02:36:45.549Z,7.13
2019-02-19T02:37:45.508Z,6.98
2019-02-19T02:38:45.508Z,7.09
2019-02-19T02:39:45.503Z,6.94
2019-02-19T02:40:45.500Z,6.87
2019-02-19T02:41:45.549Z,6.69
2019-02-19T02:42:45.495Z,6.35
2019-02-19T02:43:45.491Z,6.06
2019-02-19T02:44:45.495Z,5.82
2019-02-19T02:45:52.932Z,5.57
2019-02-19T02:46:45.519Z,5.43
2019-02-19T02:47:45.490Z,5.34
2019-02-19T02:48:45.480Z,5.28
2019-02-19T02:49:45.479Z,5.16
2019-02-19T02:50:45.483Z,5.19
2019-02-19T02:51:45.510Z,5.14
2019-02-19T02:52:45.545Z,5.16
2019-02-19T02:53:45.464Z,5.13
2019-02-19T02:54:45.464Z,5.14
2019-02-19T02:55:45.463Z,5.13
2019-02-19T02:56:45.496Z,4.98
2019-02-19T02:57:45.455Z,4.94
2019-02-19T02:58:45.458Z,5.01
2019-02-19T02:59:45.449Z,4.96
2019-02-19T03:00:45.446Z,4.84
2019-02-19T03:01:45.477Z,4.54
2019-02-19T03:02:45.474Z,4.46
2019-02-19T03:03:45.440Z,4.42
2019-02-19T03:04:45.433Z,4.37
2019-02-19T03:05:45.432Z,4.37
2019-02-19T03:06:45.458Z,4.55
2019-02-19T03:07:45.427Z,4.70
2019-02-19T03:08:45.415Z,4.91
2019-02-19T03:09:45.415Z,4.94
2019-02-19T03:10:45.413Z,4.88
2019-02-19T03:11:45.446Z,4.89
2019-02-19T03:12:45.406Z,4.86
2019-02-19T03:13:45.401Z,4.76
2019-02-19T03:14:45.397Z,4.72
2019-02-19T03:15:45.392Z,4.77
2019-02-19T03:16:45.426Z,4.70
2019-02-19T03:17:45.422Z,4.79
2019-02-19T03:18:45.385Z,4.88
2019-02-19T03:19:45.381Z,5.02
2019-02-19T03:20:45.376Z,5.12
2019-02-19T03:21:45.374Z,5.25
2019-02-19T03:22:45.409Z,5.35
2019-02-19T03:23:45.367Z,5.46
2019-02-19T03:24:45.401Z,5.50
2019-02-19T03:25:45.357Z,5.64
2019-02-19T03:26:45.352Z,5.71
2019-02-19T03:27:45.388Z,5.93
2019-02-19T03:28:45.343Z,6.03
2019-02-19T03:29:45.341Z,6.21
2019-02-19T03:30:45.337Z,6.19
2019-02-19T03:31:45.343Z,6.16
2019-02-19T03:32:45.390Z,6.11
2019-02-19T03:33:45.329Z,6.13
2019-02-19T03:34:45.327Z,6.09
2019-02-19T03:35:45.323Z,6.04
2019-02-19T03:36:45.317Z,5.95
2019-02-19T03:37:45.349Z,5.92
2019-02-19T03:38:45.316Z,5.81
2019-02-19T03:39:45.310Z,5.78
2019-02-19T03:40:45.306Z,5.89
2019-02-19T03:41:45.300Z,5.74
2019-02-19T03:42:45.332Z,5.71
2019-02-19T03:43:45.295Z,5.66
2019-02-19T03:44:45.291Z,5.60
2019-02-19T03:45:45.288Z,5.55
2019-02-19T03:46:45.284Z,5.53
2019-02-19T03:47:45.316Z,5.59
2019-02-19T03:48:45.315Z,5.50
2019-02-19T03:49:45.273Z,5.55
2019-02-19T03:50:45.280Z,5.52
2019-02-19T03:51:45.270Z,5.55
2019-02-19T03:52:45.300Z,5.57
2019-02-19T03:53:45.261Z,5.82
2019-02-19T03:54:45.262Z,5.88
2019-02-19T03:55:45.256Z,5.83
2019-02-19T03:56:45.247Z,6.03
2019-02-19T03:57:45.286Z,6.04
2019-02-19T03:58:45.244Z,6.11
2019-02-19T03:59:45.240Z,6.09
2019-02-19T04:00:45.238Z,5.96
2019-02-19T04:01:45.235Z,5.86
2019-02-19T04:02:45.267Z,5.96
2019-02-19T04:03:45.269Z,6.04
2019-02-19T04:04:45.223Z,6.13
2019-02-19T04:05:45.220Z,6.14
2019-02-19T04:06:45.216Z,6.11
2019-02-19T04:07:45.249Z,6.07
2019-02-19T04:08:45.210Z,6.14
2019-02-19T04:09:45.210Z,6.01
2019-02-19T04:10:45.208Z,6.09
2019-02-19T04:11:45.201Z,6.10
2019-02-19T04:12:45.233Z,6.04
2019-02-19T04:13:45.232Z,5.98
2019-02-19T04:14:45.194Z,6.06
2019-02-19T04:15:45.190Z,5.96
2019-02-19T04:16:45.187Z,6.00
2019-02-19T04:17:45.222Z,6.01
2019-02-19T04:18:45.178Z,6.28
2019-02-19T04:19:45.172Z,6.33
2019-02-19T04:20:45.170Z,6.18
2019-02-19T04:21:45.170Z,6.25
2019-02-19T04:22:45.200Z,6.16
2019-02-19T04:23:45.160Z,6.03
2019-02-19T04:24:45.156Z,5.89
2019-02-19T04:25:45.152Z,5.89
2019-02-19T04:26:45.151Z,5.78
2019-02-19T04:27:45.148Z,5.82
2019-02-19T04:28:45.181Z,5.75
2019-02-19T04:29:45.140Z,5.64
2019-02-19T04:30:45.145Z,5.59
2019-02-19T04:31:45.136Z,5.57
2019-02-19T04:32:45.132Z,5.73
2019-02-19T04:33:45.164Z,5.66
2019-02-19T04:34:45.161Z,5.85
2019-02-19T04:35:45.125Z,5.98
2019-02-19T04:36:45.120Z,6.10
2019-02-19T04:37:45.119Z,6.03
2019-02-19T04:38:45.147Z,6.22
2019-02-19T04:39:45.108Z,6.25
2019-02-19T04:40:45.144Z,6.35
2019-02-19T04:41:45.103Z,6.35
2019-02-19T04:42:45.098Z,6.43
2019-02-19T04:43:45.136Z,6.47
2019-02-19T04:44:45.091Z,6.51
2019-02-19T04:45:45.095Z,6.48
2019-02-19T04:46:45.125Z,6.51
2019-02-19T04:47:45.080Z,6.44
2019-02-19T04:48:45.113Z,6.32
2019-02-19T04:49:45.076Z,6.43
2019-02-19T04:50:45.073Z,6.44
2019-02-19T04:51:45.090Z,6.35
2019-02-19T04:52:45.102Z,6.43
2019-02-19T04:53:45.098Z,6.35
2019-02-19T04:54:45.062Z,6.38
2019-02-19T04:55:45.055Z,6.41
2019-02-19T04:56:45.098Z,6.33
2019-02-19T04:57:45.045Z,6.33
2019-02-19T04:58:45.079Z,6.38
2019-02-19T04:59:45.044Z,6.32
2019-02-19T05:00:45.040Z,6.32
2019-02-19T05:01:45.037Z,6.40
2019-02-19T05:02:45.049Z,6.25
2019-02-19T05:03:45.070Z,6.29
2019-02-19T05:04:45.036Z,6.16
2019-02-19T05:05:45.026Z,6.30
2019-02-19T05:06:45.019Z,6.30
2019-02-19T05:07:45.020Z,6.13
2019-02-19T05:08:45.052Z,6.28
2019-02-19T05:09:45.013Z,6.29
2019-02-19T05:10:45.014Z,6.26
2019-02-19T05:11:45.014Z,6.32
2019-02-19T05:12:45.000Z,6.18
2019-02-19T05:13:45.040Z,6.21
2019-02-19T05:14:45.000Z,6.18
2019-02-19T05:15:44.993Z,6.21
2019-02-19T05:16:44.987Z,6.25
2019-02-19T05:17:44.988Z,6.30
2019-02-19T05:18:45.019Z,6.13
2019-02-19T05:19:44.981Z,6.13
2019-02-19T05:20:44.979Z,6.19
2019-02-19T05:21:44.973Z,6.26
2019-02-19T05:22:44.978Z,6.14
2019-02-19T05:23:45.004Z,6.18
2019-02-19T05:24:45.000Z,6.11
2019-02-19T05:25:44.961Z,5.96
2019-02-19T05:26:44.959Z,5.92
2019-02-19T05:27:44.956Z,6.00
2019-02-19T05:28:44.988Z,5.89
2019-02-19T05:29:44.950Z,6.03
2019-02-19T05:30:44.944Z,6.11
2019-02-19T05:31:44.943Z,6.16
2019-02-19T05:32:44.934Z,6.09
2019-02-19T05:33:44.971Z,6.11
2019-02-19T05:34:44.967Z,6.06
2019-02-19T05:35:44.927Z,6.00
2019-02-19T05:36:44.925Z,6.14
2019-02-19T05:37:44.935Z,6.16
2019-02-19T05:38:44.955Z,6.09
2019-02-19T05:39:44.914Z,6.09
2019-02-19T05:40:44.912Z,6.04
2019-02-19T05:41:44.911Z,6.01
2019-02-19T05:42:44.909Z,6.11
2019-02-19T05:43:44.942Z,6.10
2019-02-19T05:44:44.924Z,6.25
2019-02-19T05:45:45.783Z,6.36
2019-02-19T05:46:50.010Z,6.33
2019-02-19T05:47:44.887Z,6.28
2019-02-19T05:48:44.920Z,6.11
2019-02-19T05:49:44.919Z,6.16
2019-02-19T05:50:44.884Z,6.01
2019-02-19T05:51:44.875Z,6.00
2019-02-19T05:52:44.872Z,5.86
2019-02-19T05:53:44.982Z,5.82
2019-02-19T05:54:44.868Z,5.93
2019-02-19T05:55:44.861Z,5.92
2019-02-19T05:56:44.859Z,5.92
2019-02-19T05:57:44.880Z,5.91
2019-02-19T05:58:44.917Z,6.00
2019-02-19T05:59:44.891Z,6.03
2019-02-19T06:00:44.851Z,6.09
2019-02-19T06:01:44.847Z,6.01
2019-02-19T06:02:44.842Z,6.03
2019-02-19T06:03:44.881Z,6.01
2019-02-19T06:04:44.868Z,6.03
2019-02-19T06:05:45.050Z,6.11
2019-02-19T06:06:44.832Z,6.09
2019-02-19T06:07:44.823Z,6.00
2019-02-19T06:08:44.821Z,6.11
2019-02-19T06:09:44.860Z,6.03
2019-02-19T06:10:44.816Z,6.00
2019-02-19T06:11:44.813Z,6.00
2019-02-19T06:12:44.806Z,5.98
2019-02-19T06:13:44.813Z,5.92
2019-02-19T06:14:44.839Z,5.95
2019-02-19T06:15:44.803Z,5.92
2019-02-19T06:16:44.795Z,5.93
2019-02-19T06:17:44.795Z,5.78
2019-02-19T06:18:44.795Z,5.78
2019-02-19T06:19:44.840Z,5.70
2019-02-19T06:20:44.818Z,5.66
2019-02-19T06:21:44.783Z,5.57
2019-02-19T06:22:44.775Z,5.66
2019-02-19T06:23:44.774Z,5.57
2019-02-19T06:24:44.812Z,5.52
2019-02-19T06:25:44.923Z,5.48
2019-02-19T06:26:44.762Z,5.57
2019-02-19T06:27:44.764Z,5.59
2019-02-19T06:28:44.759Z,5.59
2019-02-19T06:29:44.786Z,5.60
2019-02-19T06:30:44.783Z,5.57
2019-02-19T06:31:44.746Z,5.57
2019-02-19T06:32:44.741Z,5.60
2019-02-19T06:33:44.737Z,5.59
2019-02-19T06:34:44.780Z,5.67
2019-02-19T06:35:44.735Z,5.68
2019-02-19T06:36:44.767Z,5.81
2019-02-19T06:37:44.731Z,5.77
2019-02-19T06:38:44.750Z,5.71
2019-02-19T06:39:44.761Z,5.85
2019-02-19T06:40:44.720Z,5.78
2019-02-19T06:41:44.719Z,5.89
2019-02-19T06:42:44.750Z,5.89
2019-02-19T06:43:44.708Z,6.04
2019-02-19T06:44:44.771Z,6.03
2019-02-19T06:45:44.756Z,6.03
2019-02-19T06:46:44.698Z,6.09
2019-02-19T06:47:44.700Z,6.09
2019-02-19T06:48:44.686Z,6.03
2019-02-19T06:49:44.730Z,6.01
2019-02-19T06:50:44.694Z,6.06
2019-02-19T06:51:44.696Z,6.07
2019-02-19T06:52:44.681Z,6.18
2019-02-19T06:53:44.673Z,6.18
2019-02-19T06:54:44.682Z,6.36
2019-02-19T06:55:45.071Z,6.33
2019-02-19T06:56:44.667Z,6.35
2019-02-19T06:57:44.663Z,6.44
2019-02-19T06:58:44.662Z,6.53
2019-02-19T06:59:44.657Z,6.58
2019-02-19T07:00:44.698Z,6.62
2019-02-19T07:01:44.655Z,6.58
2019-02-19T07:02:44.652Z,6.63
2019-02-19T07:03:44.644Z,6.65
2019-02-19T07:04:44.651Z,6.63
2019-02-19T07:05:44.750Z,6.61
2019-02-19T07:06:44.637Z,6.69
2019-02-19T07:07:44.649Z,6.66
2019-02-19T07:08:44.632Z,6.76
2019-02-19T07:09:44.629Z,6.73
2019-02-19T07:10:44.665Z,6.65
2019-02-19T07:11:44.627Z,6.62
2019-02-19T07:12:44.629Z,6.76
2019-02-19T07:13:44.626Z,6.80
2019-02-19T07:14:44.617Z,6.95
2019-02-19T07:15:44.692Z,7.17
2019-02-19T07:16:44.619Z,7.19
2019-02-19T07:17:44.613Z,7.31
2019-02-19T07:18:44.608Z,7.32
2019-02-19T07:19:44.605Z,7.32
2019-02-19T07:20:44.638Z,7.52
2019-02-19T07:21:44.637Z,7.82
2019-02-19T07:22:44.601Z,7.99
2019-02-19T07:23:44.603Z,7.94
2019-02-19T07:24:44.597Z,7.97
2019-02-19T07:25:44.632Z,7.85
2019-02-19T07:26:44.601Z,7.96
2019-02-19T07:27:44.603Z,7.77
2019-02-19T07:28:44.604Z,7.45
2019-02-19T07:29:44.590Z,7.42
2019-02-19T07:30:44.628Z,7.35
2019-02-19T07:31:44.589Z,7.24
2019-02-19T07:32:44.595Z,7.17
2019-02-19T07:33:44.585Z,7.07
2019-02-19T07:34:44.590Z,7.15
2019-02-19T07:35:44.626Z,7.19
2019-02-19T07:36:44.621Z,7.32
2019-02-19T07:37:44.579Z,7.19
2019-02-19T07:38:44.581Z,7.13
2019-02-19T07:39:44.579Z,6.97
2019-02-19T07:40:44.615Z,7.01
2019-02-19T07:41:44.576Z,7.13
2019-02-19T07:42:44.578Z,7.15
2019-02-19T07:43:44.573Z,7.09
2019-02-19T07:44:45.976Z,7.12
2019-02-19T07:45:44.611Z,7.05
2019-02-19T07:46:44.573Z,7.01
2019-02-19T07:47:44.566Z,7.08
2019-02-19T07:48:44.568Z,7.13
2019-02-19T07:49:44.566Z,7.12
2019-02-19T07:50:44.599Z,7.07
2019-02-19T07:51:44.597Z,7.26
2019-02-19T07:52:44.562Z,7.29
2019-02-19T07:53:44.561Z,7.42
2019-02-19T07:54:44.557Z,7.42
2019-02-19T07:55:44.832Z,7.37
2019-02-19T07:56:44.683Z,7.50
2019-02-19T07:57:44.552Z,7.72
2019-02-19T07:58:44.550Z,7.60
2019-02-19T07:59:44.549Z,7.45
2019-02-19T08:00:44.585Z,7.75
2019-02-19T08:01:44.588Z,7.77
2019-02-19T08:02:44.544Z,7.89
2019-02-19T08:03:44.550Z,7.96
2019-02-19T08:04:44.597Z,7.94
2019-02-19T08:05:44.546Z,7.99
2019-02-19T08:06:44.576Z,7.89
2019-02-19T08:07:44.545Z,7.97
2019-02-19T08:08:44.538Z,7.92
2019-02-19T08:09:44.536Z,8.04
2019-02-19T08:10:44.533Z,8.10
2019-02-19T08:11:44.569Z,8.07
2019-02-19T08:12:44.572Z,8.11
2019-02-19T08:13:44.528Z,8.10
2019-02-19T08:14:44.534Z,7.94
2019-02-19T08:15:44.530Z,7.90
2019-02-19T08:16:44.563Z,7.92
2019-02-19T08:17:44.526Z,7.97
2019-02-19T08:18:44.524Z,8.12
2019-02-19T08:19:44.526Z,8.14
2019-02-19T08:20:44.525Z,7.97
2019-02-19T08:21:44.565Z,8.14
2019-02-19T08:22:44.521Z,8.00
2019-02-19T08:23:44.520Z,7.99
2019-02-19T08:24:44.522Z,7.97
2019-02-19T08:25:44.521Z,7.96
2019-02-19T08:26:44.554Z,7.99
2019-02-19T08:27:44.516Z,7.89
2019-02-19T08:28:44.515Z,7.84
2019-02-19T08:29:44.518Z,8.03
2019-02-19T08:30:44.512Z,8.33
2019-02-19T08:31:44.549Z,8.44
2019-02-19T08:32:44.513Z,8.53
2019-02-19T08:33:44.514Z,8.66
2019-02-19T08:34:44.512Z,8.53
2019-02-19T08:35:44.512Z,8.54
2019-02-19T08:36:44.544Z,8.58
2019-02-19T08:37:44.508Z,8.68
2019-02-19T08:38:44.508Z,8.78
2019-02-19T08:39:44.510Z,8.73
2019-02-19T08:40:44.503Z,8.60
2019-02-19T08:41:44.541Z,8.66
2019-02-19T08:42:44.506Z,8.58
2019-02-19T08:43:44.506Z,8.68
2019-02-19T08:44:44.504Z,8.72
2019-02-19T08:45:44.506Z,8.72
2019-02-19T08:46:44.540Z,8.73
2019-02-19T08:47:44.497Z,8.76
2019-02-19T08:48:44.500Z,8.71
2019-02-19T08:49:44.507Z,8.68
2019-02-19T08:50:44.500Z,8.75
2019-02-19T08:51:44.532Z,8.71
2019-02-19T08:52:44.538Z,8.66
2019-02-19T08:53:44.496Z,8.65
2019-02-19T08:54:44.501Z,8.55
2019-02-19T08:55:44.498Z,8.63
2019-02-19T08:56:44.904Z,8.57
2019-02-19T08:57:44.846Z,8.63
2019-02-19T08:58:44.492Z,8.55
2019-02-19T08:59:44.490Z,8.55
2019-02-19T09:00:44.504Z,8.62
2019-02-19T09:01:44.533Z,8.54
2019-02-19T09:02:44.594Z,8.60
2019-02-19T09:03:44.484Z,8.51
2019-02-19T09:04:44.537Z,8.50
2019-02-19T09:05:44.584Z,8.51
2019-02-19T09:06:44.518Z,8.44
2019-02-19T09:07:44.481Z,8.51
2019-02-19T09:08:44.498Z,8.47
2019-02-19T09:09:44.481Z,8.55
2019-02-19T09:10:44.499Z,8.55
2019-02-19T09:11:44.513Z,8.65
2019-02-19T09:12:44.483Z,8.51
2019-02-19T09:13:44.613Z,8.57
2019-02-19T09:14:44.476Z,8.66
2019-02-19T09:15:44.571Z,8.65
2019-02-19T09:16:44.514Z,8.68
2019-02-19T09:17:51.698Z,8.75
2019-02-19T09:18:44.471Z,8.84
2019-02-19T09:19:44.574Z,8.86
2019-02-19T09:20:44.470Z,8.91
2019-02-19T09:21:44.471Z,9.04
2019-02-19T09:22:44.498Z,9.09
2019-02-19T09:23:44.522Z,9.24
2019-02-19T09:24:44.460Z,9.24
2019-02-19T09:25:44.562Z,9.18
2019-02-19T09:26:44.457Z,9.21
2019-02-19T09:27:44.495Z,9.27
2019-02-19T09:28:44.465Z,9.23
2019-02-19T09:29:44.459Z,9.20
2019-02-19T09:30:44.460Z,9.28
2019-02-19T09:31:44.452Z,9.32
2019-02-19T09:32:44.488Z,9.30
2019-02-19T09:33:44.448Z,9.24
2019-02-19T09:34:44.457Z,9.27
2019-02-19T09:35:44.458Z,9.30
2019-02-19T09:36:44.449Z,9.23
2019-02-19T09:37:44.491Z,9.18
2019-02-19T09:38:44.445Z,9.25
2019-02-19T09:39:44.446Z,9.38
2019-02-19T09:40:44.447Z,9.34
2019-02-19T09:41:44.448Z,9.34
2019-02-19T09:42:44.487Z,9.31
2019-02-19T09:43:44.440Z,9.31
2019-02-19T09:44:44.445Z,9.34
2019-02-19T09:45:44.442Z,9.38
2019-02-19T09:46:44.492Z,9.32
2019-02-19T09:47:44.472Z,9.25
2019-02-19T09:48:44.475Z,9.25
2019-02-19T09:49:44.440Z,9.09
2019-02-19T09:50:44.430Z,9.10
2019-02-19T09:51:45.565Z,9.05
2019-02-19T09:52:44.470Z,9.01
2019-02-19T09:53:44.434Z,9.09
2019-02-19T09:54:44.476Z,9.06
2019-02-19T09:55:44.438Z,9.15
2019-02-19T09:56:44.428Z,9.05
2019-02-19T09:57:44.466Z,9.10
2019-02-19T09:58:45.291Z,9.24
2019-02-19T09:59:44.430Z,9.18
2019-02-19T10:00:44.424Z,9.28
2019-02-19T10:01:44.427Z,9.06
2019-02-19T10:02:44.458Z,9.13
2019-02-19T10:03:44.432Z,9.16
2019-02-19T10:04:44.421Z,9.12
2019-02-19T10:05:44.419Z,9.20
2019-02-19T10:06:44.422Z,9.05
2019-02-19T10:07:44.464Z,9.20
2019-02-19T10:08:44.416Z,9.13
2019-02-19T10:09:44.417Z,9.05
2019-02-19T10:10:44.416Z,9.12
2019-02-19T10:11:44.425Z,9.10
2019-02-19T10:12:44.448Z,9.09
2019-02-19T10:13:44.413Z,9.10
2019-02-19T10:14:44.412Z,9.04
2019-02-19T10:15:47.653Z,8.97
2019-02-19T10:16:44.426Z,8.93
2019-02-19T10:17:44.973Z,8.96
2019-02-19T10:18:44.405Z,8.90
2019-02-19T10:19:44.405Z,8.83
2019-02-19T10:20:44.404Z,8.76
2019-02-19T10:21:45.726Z,8.79
2019-02-19T10:22:44.442Z,8.79
2019-02-19T10:23:44.438Z,8.68
2019-02-19T10:24:44.411Z,8.76
2019-02-19T10:25:44.717Z,8.62
2019-02-19T10:26:44.405Z,8.68
2019-02-19T10:27:44.442Z,8.55
2019-02-19T10:28:44.390Z,8.47
2019-02-19T10:29:44.385Z,8.44
2019-02-19T10:30:44.398Z,8.44
2019-02-19T10:31:44.401Z,8.45
2019-02-19T10:32:44.433Z,8.36
2019-02-19T10:33:44.383Z,8.25
2019-02-19T10:34:44.390Z,8.42
2019-02-19T10:35:44.443Z,8.45
2019-02-19T10:36:44.390Z,8.55
2019-02-19T10:37:44.417Z,8.48
2019-02-19T10:38:44.381Z,8.44
2019-02-19T10:39:44.381Z,8.45
2019-02-19T10:40:44.482Z,8.42
2019-02-19T10:41:45.146Z,8.35
2019-02-19T10:42:44.377Z,8.47
2019-02-19T10:43:44.436Z,8.51
2019-02-19T10:44:44.372Z,8.45
2019-02-19T10:45:44.397Z,8.37
2019-02-19T10:46:44.421Z,8.39
2019-02-19T10:47:44.442Z,8.48
2019-02-19T10:48:44.461Z,8.45
2019-02-19T10:49:44.383Z,8.39
2019-02-19T10:50:44.364Z,8.35
2019-02-19T10:51:44.361Z,8.26
2019-02-19T10:52:44.351Z,8.35
2019-02-19T10:53:44.433Z,8.33
2019-02-19T10:54:44.374Z,8.18
2019-02-19T10:55:46.147Z,8.14
2019-02-19T10:56:44.363Z,8.10
2019-02-19T10:57:44.355Z,8.08
2019-02-19T10:58:44.388Z,8.04
2019-02-19T10:59:44.354Z,8.15
2019-02-19T11:00:44.350Z,8.11
2019-02-19T11:01:44.349Z,8.08
2019-02-19T11:02:44.345Z,8.07
2019-02-19T11:03:44.384Z,8.10
2019-02-19T11:04:44.341Z,7.97
2019-02-19T11:05:44.343Z,7.96
2019-02-19T11:06:44.342Z,7.96
2019-02-19T11:07:44.338Z,8.03
2019-02-19T11:08:44.375Z,7.99
2019-02-19T11:09:44.343Z,7.99
2019-02-19T11:10:44.336Z,7.97
2019-02-19T11:11:44.336Z,7.96
2019-02-19T11:12:44.330Z,7.99
2019-02-19T11:13:44.360Z,7.89
2019-02-19T11:14:44.332Z,8.00
2019-02-19T11:15:44.325Z,7.87
2019-02-19T11:16:44.320Z,7.99
2019-02-19T11:17:44.321Z,7.97
2019-02-19T11:18:44.362Z,7.90
2019-02-19T11:19:44.317Z,7.94
2019-02-19T11:20:44.314Z,7.89
2019-02-19T11:21:50.147Z,7.82
2019-02-19T11:22:44.331Z,7.82
2019-02-19T11:23:44.351Z,7.84
2019-02-19T11:24:44.355Z,7.85
2019-02-19T11:25:44.305Z,7.82
2019-02-19T11:26:44.308Z,7.84
2019-02-19T11:27:44.300Z,7.84
2019-02-19T11:28:44.356Z,7.74
2019-02-19T11:29:44.299Z,7.82
2019-02-19T11:30:44.300Z,7.74
2019-02-19T11:31:44.298Z,7.75
2019-02-19T11:32:44.299Z,7.75
2019-02-19T11:33:44.326Z,7.71
2019-02-19T11:34:44.291Z,7.74
2019-02-19T11:35:44.286Z,7.77
2019-02-19T11:36:44.285Z,7.81
2019-02-19T11:37:44.281Z,7.78
2019-02-19T11:38:44.320Z,7.78
2019-02-19T11:39:44.277Z,7.79
2019-02-19T11:40:44.280Z,7.69
2019-02-19T11:41:44.273Z,7.71
2019-02-19T11:42:44.278Z,7.74
2019-02-19T11:43:44.307Z,7.78
2019-02-19T11:44:44.308Z,7.82
2019-02-19T11:45:44.267Z,7.82
2019-02-19T11:46:44.262Z,7.84
2019-02-19T11:47:44.262Z,7.77
2019-02-19T11:48:44.297Z,7.71
2019-02-19T11:49:44.257Z,7.67
2019-02-19T11:50:44.255Z,7.72
2019-02-19T11:51:44.260Z,7.63
2019-02-19T11:52:44.251Z,7.67
2019-02-19T11:53:44.249Z,7.72
2019-02-19T11:54:44.280Z,7.67
2019-02-19T11:55:44.246Z,7.69
2019-02-19T11:56:44.245Z,7.66
2019-02-19T11:57:44.247Z,7.62
2019-02-19T11:58:44.254Z,7.50
2019-02-19T11:59:44.274Z,7.52
2019-02-19T12:00:44.269Z,7.50
2019-02-19T12:01:44.238Z,7.45
2019-02-19T12:02:44.230Z,7.42
2019-02-19T12:03:44.237Z,7.34
2019-02-19T12:04:44.270Z,7.35
2019-02-19T12:05:44.224Z,7.29
2019-02-19T12:06:44.225Z,7.31
2019-02-19T12:07:44.224Z,7.23
2019-02-19T12:08:44.217Z,7.20
2019-02-19T12:09:44.263Z,7.13
2019-02-19T12:10:44.219Z,7.13
2019-02-19T12:11:44.211Z,7.07
2019-02-19T12:12:44.209Z,7.15
2019-02-19T12:13:44.207Z,7.08
2019-02-19T12:14:44.245Z,7.07
2019-02-19T12:15:44.202Z,6.91
2019-02-19T12:16:44.199Z,6.97
2019-02-19T12:17:44.198Z,6.89
2019-02-19T12:18:46.437Z,6.89
2019-02-19T12:19:44.226Z,6.86
2019-02-19T12:20:44.225Z,6.87
2019-02-19T12:21:44.270Z,6.83
2019-02-19T12:22:44.186Z,6.77
2019-02-19T12:23:44.184Z,6.76
2019-02-19T12:24:44.215Z,6.66
2019-02-19T12:25:44.176Z,6.69
2019-02-19T12:26:44.210Z,6.66
2019-02-19T12:27:44.174Z,6.65
2019-02-19T12:28:44.169Z,6.62
2019-02-19T12:29:44.206Z,6.59
2019-02-19T12:30:44.165Z,6.56
2019-02-19T12:31:44.161Z,6.62
2019-02-19T12:32:44.165Z,6.61
2019-02-19T12:33:44.174Z,6.58
2019-02-19T12:34:44.188Z,6.66
2019-02-19T12:35:44.157Z,6.63
2019-02-19T12:36:44.152Z,6.54
2019-02-19T12:37:44.146Z,6.51
2019-02-19T12:38:44.167Z,6.59
2019-02-19T12:39:44.181Z,6.54
2019-02-19T12:40:44.138Z,6.62
2019-02-19T12:41:44.133Z,6.66
2019-02-19T12:42:44.137Z,6.66
2019-02-19T12:43:44.133Z,6.58
2019-02-19T12:44:44.176Z,6.68
2019-02-19T12:45:44.123Z,6.69
2019-02-19T12:46:44.127Z,6.54
2019-02-19T12:47:44.124Z,6.63
2019-02-19T12:48:44.119Z,6.69
2019-02-19T12:49:44.156Z,6.68
2019-02-19T12:50:44.144Z,6.63
2019-02-19T12:51:44.112Z,6.71
2019-02-19T12:52:44.107Z,6.59
2019-02-19T12:53:44.101Z,6.61
2019-02-19T12:54:44.138Z,6.63
2019-02-19T12:55:44.097Z,6.65
2019-02-19T12:56:44.130Z,6.69
2019-02-19T12:57:44.103Z,6.68
2019-02-19T12:58:44.092Z,6.68
2019-02-19T12:59:44.123Z,6.69
2019-02-19T13:00:44.086Z,6.71
2019-02-19T13:01:44.088Z,6.79
2019-02-19T13:02:44.281Z,6.79
2019-02-19T13:03:44.081Z,6.80
2019-02-19T13:04:44.074Z,6.79
2019-02-19T13:05:44.109Z,6.81
2019-02-19T13:06:44.072Z,6.80
2019-02-19T13:07:44.071Z,6.86
2019-02-19T13:08:44.062Z,6.95
2019-02-19T13:09:44.061Z,6.90
2019-02-19T13:10:44.095Z,6.99
2019-02-19T13:11:44.068Z,6.91
2019-02-19T13:12:44.055Z,7.04
2019-02-19T13:13:44.055Z,7.12
2019-02-19T13:14:44.197Z,7.09
2019-02-19T13:15:45.998Z,7.08
2019-02-19T13:16:44.042Z,7.16
2019-02-19T13:17:44.038Z,7.13
2019-02-19T13:18:44.039Z,7.08